createdAt,value
2019-03-22T00:02:01.007Z,5.16
2019-03-22T00:04:32.303Z,5.09
2019-03-22T00:07:03.558Z,4.96
2019-03-22T00:09:34.637Z,4.99
2019-03-22T00:12:06.090Z,5.02
2019-03-22T00:14:37.293Z,4.99
2019-03-22T00:17:08.494Z,5.02
2019-03-22T00:19:41.445Z,4.98
2019-03-22T00:22:12.754Z,5.04
2019-03-22T00:24:43.886Z,5.04
2019-03-22T00:27:16.736Z,4.99
2019-03-22T00:29:48.109Z,5.01
2019-03-22T00:32:19.124Z,4.90
2019-03-22T00:34:50.380Z,4.81
2019-03-22T00:37:21.423Z,4.79
2019-03-22T00:39:52.462Z,4.71
2019-03-22T00:42:23.516Z,4.70
2019-03-22T00:44:54.674Z,4.73
2019-03-22T00:47:25.820Z,4.71
2019-03-22T00:49:56.810Z,4.64
2019-03-22T00:52:27.975Z,4.62
2019-03-22T00:54:58.979Z,4.56
2019-03-22T00:57:30.174Z,4.55
2019-03-22T01:00:01.551Z,4.52
2019-03-22T01:02:32.783Z,4.53
2019-03-22T01:05:05.557Z,4.53
2019-03-22T01:07:36.692Z,4.53
2019-03-22T01:10:11.010Z,4.54
2019-03-22T01:12:42.158Z,4.72
2019-03-22T01:15:13.921Z,4.70
2019-03-22T01:17:46.923Z,4.71
2019-03-22T01:20:17.929Z,4.83
2019-03-22T01:22:49.079Z,4.76
2019-03-22T01:25:20.226Z,4.78
2019-03-22T01:27:51.301Z,4.82
2019-03-22T01:30:23.363Z,4.79
2019-03-22T01:32:54.404Z,4.78
2019-03-22T01:35:25.682Z,4.89
2019-03-22T01:37:56.800Z,4.89
2019-03-22T01:40:27.936Z,4.77
2019-03-22T01:42:59.106Z,4.87
2019-03-22T01:45:30.168Z,4.94
2019-03-22T01:48:01.271Z,4.91
2019-03-22T01:50:32.485Z,5.08
2019-03-22T01:53:03.624Z,5.11
2019-03-22T01:55:34.795Z,5.11
2019-03-22T01:58:06.109Z,5.03
2019-03-22T02:00:37.236Z,4.88
2019-03-22T02:03:08.393Z,4.93
2019-03-22T02:05:39.818Z,4.99
2019-03-22T02:08:11.043Z,5.03
2019-03-22T02:10:42.094Z,4.84
2019-03-22T02:13:13.271Z,4.91
2019-03-22T02:15:44.461Z,4.87
2019-03-22T02:18:15.604Z,4.70
2019-03-22T02:20:46.749Z,4.66
2019-03-22T02:23:17.916Z,4.66
2019-03-22T02:25:48.994Z,4.67
2019-03-22T02:28:20.137Z,4.60
2019-03-22T02:30:51.277Z,4.61
2019-03-22T02:33:22.398Z,4.49
2019-03-22T02:35:53.434Z,4.45
2019-03-22T02:38:24.529Z,4.43
2019-03-22T02:40:55.722Z,4.53
2019-03-22T02:43:26.758Z,4.53
2019-03-22T02:45:57.942Z,4.58
2019-03-22T02:48:30.172Z,4.75
2019-03-22T02:51:02.960Z,4.86
2019-03-22T02:53:34.174Z,4.85
2019-03-22T02:56:05.393Z,4.85
2019-03-22T02:58:38.297Z,4.83
2019-03-22T03:01:09.443Z,4.79
2019-03-22T03:03:40.523Z,4.94
2019-03-22T03:06:11.592Z,4.99
2019-03-22T03:08:42.765Z,5.08
2019-03-22T03:11:13.869Z,5.10
2019-03-22T03:13:44.892Z,5.17
2019-03-22T03:16:16.115Z,5.14
2019-03-22T03:18:48.362Z,5.13
2019-03-22T03:21:19.457Z,5.17
2019-03-22T03:23:50.606Z,5.06
2019-03-22T03:26:21.647Z,5.12
2019-03-22T03:28:52.695Z,5.18
2019-03-22T03:31:23.910Z,5.13
2019-03-22T03:33:54.913Z,5.11
2019-03-22T03:36:26.117Z,5.20
2019-03-22T03:38:57.211Z,5.15
2019-03-22T03:41:28.316Z,5.27
2019-03-22T03:44:00.410Z,5.30
2019-03-22T03:46:31.434Z,5.36
2019-03-22T03:49:02.607Z,5.40
2019-03-22T03:51:33.603Z,5.30
2019-03-22T03:54:04.675Z,5.39
2019-03-22T03:56:36.803Z,5.52
2019-03-22T03:59:07.854Z,5.46
2019-03-22T04:01:38.925Z,5.53
2019-03-22T04:04:10.012Z,5.51
2019-03-22T04:06:41.099Z,5.56
2019-03-22T04:09:12.149Z,5.57
2019-03-22T04:11:43.175Z,5.54
2019-03-22T04:14:14.160Z,5.41
2019-03-22T04:16:45.412Z,5.49
2019-03-22T04:19:16.715Z,5.45
2019-03-22T04:21:47.966Z,5.38
2019-03-22T04:24:19.213Z,5.42
2019-03-22T04:26:51.447Z,5.37
2019-03-22T04:29:22.630Z,5.35
2019-03-22T04:31:53.766Z,5.40
2019-03-22T04:34:24.823Z,5.42
2019-03-22T04:36:56.037Z,5.48
2019-03-22T04:39:28.208Z,5.47
2019-03-22T04:41:59.448Z,5.52
2019-03-22T04:44:30.462Z,5.54
2019-03-22T04:47:03.589Z,5.52
2019-03-22T04:49:34.886Z,5.57
2019-03-22T04:52:06.451Z,5.58
2019-03-22T04:54:38.669Z,5.61
2019-03-22T04:57:09.813Z,5.70
2019-03-22T04:59:40.922Z,5.73
2019-03-22T05:02:12.068Z,5.72
2019-03-22T05:04:43.401Z,5.70
2019-03-22T05:07:14.946Z,5.88
2019-03-22T05:09:46.591Z,5.72
2019-03-22T05:12:18.233Z,5.80
2019-03-22T05:14:49.440Z,5.75
2019-03-22T05:17:20.525Z,5.56
2019-03-22T05:19:51.914Z,5.54
2019-03-22T05:22:23.273Z,5.60
2019-03-22T05:24:54.472Z,5.26
2019-03-22T05:27:25.613Z,5.33
2019-03-22T05:29:57.876Z,5.17
2019-03-22T05:32:29.016Z,4.99
2019-03-22T05:35:00.076Z,5.08
2019-03-22T05:37:31.261Z,5.13
2019-03-22T05:40:02.504Z,5.10
2019-03-22T05:42:33.575Z,5.23
2019-03-22T05:45:06.585Z,5.13
2019-03-22T05:47:40.727Z,5.36
2019-03-22T05:50:11.783Z,5.35
2019-03-22T05:52:42.962Z,5.43
2019-03-22T05:55:14.286Z,5.56
2019-03-22T05:57:46.792Z,5.54
2019-03-22T06:00:18.528Z,5.63
2019-03-22T06:02:49.778Z,5.78
2019-03-22T06:05:21.969Z,5.79
2019-03-22T06:07:53.213Z,5.63
2019-03-22T06:10:24.298Z,5.64
2019-03-22T06:12:55.516Z,5.68
2019-03-22T06:15:26.649Z,5.76
2019-03-22T06:17:57.820Z,5.95
2019-03-22T06:20:28.979Z,5.88
2019-03-22T06:23:00.178Z,5.97
2019-03-22T06:25:31.280Z,5.97
2019-03-22T06:28:02.314Z,6.01
2019-03-22T06:30:33.598Z,6.05
2019-03-22T06:33:04.759Z,6.17
2019-03-22T06:35:36.923Z,6.41
2019-03-22T06:38:08.069Z,6.46
2019-03-22T06:40:39.311Z,6.57
2019-03-22T06:43:12.765Z,6.63
2019-03-22T06:45:43.849Z,6.80
2019-03-22T06:48:14.935Z,6.79
2019-03-22T06:50:47.071Z,6.74
2019-03-22T06:53:18.610Z,6.94
2019-03-22T06:55:49.889Z,7.12
2019-03-22T06:58:21.114Z,7.20
2019-03-22T07:00:53.422Z,7.22
2019-03-22T07:03:24.418Z,7.29
2019-03-22T07:05:55.451Z,7.40
2019-03-22T07:08:28.160Z,7.53
2019-03-22T07:10:59.305Z,7.75
2019-03-22T07:13:32.295Z,7.80
2019-03-22T07:16:03.679Z,7.93
2019-03-22T07:18:34.911Z,8.12
2019-03-22T07:21:06.039Z,8.32
2019-03-22T07:23:37.198Z,8.57
2019-03-22T07:26:08.192Z,8.50
2019-03-22T07:28:39.433Z,8.37
2019-03-22T07:31:10.543Z,8.29
2019-03-22T07:33:43.879Z,8.27
2019-03-22T07:36:15.350Z,8.26
2019-03-22T07:38:46.594Z,8.16
2019-03-22T07:41:17.726Z,8.29
2019-03-22T07:43:48.979Z,8.35
2019-03-22T07:46:20.125Z,8.37
2019-03-22T07:48:51.467Z,8.32
2019-03-22T07:51:22.551Z,8.42
2019-03-22T07:53:53.772Z,8.62
2019-03-22T07:56:24.883Z,8.72
2019-03-22T07:58:56.929Z,8.75
2019-03-22T08:01:28.716Z,8.83
2019-03-22T08:03:59.822Z,8.91
2019-03-22T08:06:31.221Z,8.96
2019-03-22T08:09:02.518Z,9.00
2019-03-22T08:11:34.471Z,9.11
2019-03-22T08:14:05.520Z,9.25
2019-03-22T08:16:36.741Z,9.68
2019-03-22T08:19:07.919Z,9.84
2019-03-22T08:21:39.104Z,9.98
2019-03-22T08:24:10.409Z,10.01
2019-03-22T08:26:41.762Z,9.93
2019-03-22T08:29:13.042Z,10.04
2019-03-22T08:31:44.329Z,10.20
2019-03-22T08:34:15.589Z,10.39
2019-03-22T08:36:46.782Z,10.47
2019-03-22T08:39:18.110Z,10.37
2019-03-22T08:41:49.258Z,10.39
2019-03-22T08:44:20.341Z,10.63
2019-03-22T08:46:51.684Z,10.69
2019-03-22T08:49:24.449Z,10.51
2019-03-22T08:51:55.664Z,10.71
2019-03-22T08:54:26.997Z,10.89
2019-03-22T08:56:58.191Z,11.00
2019-03-22T08:59:29.259Z,10.99
2019-03-22T09:02:00.748Z,11.20
2019-03-22T09:04:32.041Z,11.27
2019-03-22T09:07:03.221Z,11.20
2019-03-22T09:09:41.350Z,10.93
2019-03-22T09:12:07.756Z,11.10
2019-03-22T09:14:38.967Z,11.08
2019-03-22T09:17:10.175Z,11.08
2019-03-22T09:19:41.341Z,11.23
2019-03-22T09:22:12.438Z,11.43
2019-03-22T09:24:45.369Z,11.42
2019-03-22T09:27:17.550Z,11.28
2019-03-22T09:29:48.754Z,11.34
2019-03-22T09:32:19.962Z,11.33
2019-03-22T09:34:51.229Z,11.20
2019-03-22T09:37:22.380Z,10.95
2019-03-22T09:39:53.584Z,10.89
2019-03-22T09:42:24.886Z,10.88
2019-03-22T09:44:55.959Z,10.82
2019-03-22T09:47:26.989Z,10.92
2019-03-22T09:49:58.139Z,11.12
2019-03-22T09:52:30.349Z,11.35
2019-03-22T09:55:12.457Z,11.42
2019-03-22T09:57:34.568Z,11.32
2019-03-22T10:00:08.579Z,11.40
2019-03-22T10:02:40.198Z,11.51
2019-03-22T10:05:11.379Z,11.20
2019-03-22T10:07:42.621Z,11.18
2019-03-22T10:10:14.462Z,11.19
2019-03-22T10:12:46.011Z,11.33
2019-03-22T10:15:17.392Z,11.30
2019-03-22T10:17:48.629Z,11.24
2019-03-22T10:20:19.744Z,11.33
2019-03-22T10:22:51.545Z,11.23
2019-03-22T10:25:22.588Z,11.19
2019-03-22T10:27:54.744Z,11.27
2019-03-22T10:30:26.531Z,11.26
2019-03-22T10:32:57.620Z,11.12
2019-03-22T10:35:28.798Z,11.15
2019-03-22T10:38:01.146Z,11.02
2019-03-22T10:40:33.163Z,11.03
2019-03-22T10:43:04.200Z,11.12
2019-03-22T10:45:35.250Z,11.33
2019-03-22T10:48:06.420Z,11.23
2019-03-22T10:50:37.606Z,11.25
2019-03-22T10:53:08.873Z,11.23
2019-03-22T10:55:39.976Z,11.22
2019-03-22T10:58:21.007Z,11.29
2019-03-22T11:00:43.814Z,11.07
2019-03-22T11:03:15.012Z,11.03
2019-03-22T11:05:46.352Z,10.98
2019-03-22T11:08:17.564Z,11.06
2019-03-22T11:10:48.742Z,11.05
2019-03-22T11:13:22.872Z,10.99
2019-03-22T11:15:54.074Z,10.90
2019-03-22T11:18:25.079Z,10.82
2019-03-22T11:21:04.764Z,10.90
2019-03-22T11:23:29.129Z,10.86
2019-03-22T11:26:04.135Z,10.70
2019-03-22T11:28:33.075Z,10.59
2019-03-22T11:31:05.063Z,10.50
2019-03-22T11:33:37.433Z,10.28
2019-03-22T11:36:08.774Z,10.26
2019-03-22T11:38:40.021Z,10.34
2019-03-22T11:41:11.127Z,10.41
2019-03-22T11:43:42.261Z,10.44
2019-03-22T11:46:14.333Z,10.52
2019-03-22T11:48:45.376Z,10.41
2019-03-22T11:51:16.939Z,10.37
2019-03-22T11:53:49.092Z,10.57
2019-03-22T11:56:20.223Z,10.70
2019-03-22T11:58:52.418Z,10.64
2019-03-22T12:01:23.675Z,10.69
2019-03-22T12:03:54.714Z,10.68
2019-03-22T12:06:27.375Z,10.64
2019-03-22T12:09:00.189Z,10.41
2019-03-22T12:11:31.234Z,10.43
2019-03-22T12:14:02.406Z,10.32
2019-03-22T12:16:33.524Z,10.11
2019-03-22T12:19:04.744Z,10.18
2019-03-22T12:21:35.789Z,10.23
2019-03-22T12:24:06.961Z,10.24
2019-03-22T12:26:38.077Z,10.28
2019-03-22T12:29:09.286Z,10.33
2019-03-22T12:31:40.500Z,10.39
2019-03-22T12:34:11.938Z,10.38
2019-03-22T12:36:43.216Z,10.32
2019-03-22T12:39:16.611Z,10.30
2019-03-22T12:41:47.722Z,10.33
2019-03-22T12:44:19.031Z,10.35
2019-03-22T12:46:50.109Z,10.27
2019-03-22T12:49:22.429Z,10.23
2019-03-22T12:51:53.639Z,10.21
2019-03-22T12:54:24.701Z,10.15
2019-03-22T12:56:56.054Z,10.23
2019-03-22T12:59:28.405Z,10.30
2019-03-22T13:02:00.693Z,10.33
2019-03-22T13:04:32.054Z,10.34
2019-03-22T13:07:03.365Z,10.29
2019-03-22T13:09:37.352Z,10.30
2019-03-22T13:12:08.449Z,10.36
2019-03-22T13:14:39.632Z,10.38
2019-03-22T13:17:10.716Z,10.40
2019-03-22T13:19:43.525Z,10.44
2019-03-22T13:22:14.673Z,10.39
2019-03-22T13:24:45.846Z,10.43
2019-03-22T13:27:17.102Z,10.37
2019-03-22T13:29:48.227Z,10.38
2019-03-22T13:32:19.498Z,10.46
2019-03-22T13:34:50.687Z,10.47
2019-03-22T13:37:21.858Z,10.45
2019-03-22T13:39:53.196Z,10.48
2019-03-22T13:42:24.402Z,10.48
2019-03-22T13:44:55.567Z,10.49
2019-03-22T13:47:26.812Z,10.51
2019-03-22T13:49:57.943Z,10.45
2019-03-22T13:52:31.781Z,10.44
2019-03-22T13:55:03.227Z,10.24
2019-03-22T13:57:35.273Z,10.22
2019-03-22T14:00:11.613Z,9.94
2019-03-22T14:02:42.587Z,9.64
2019-03-22T14:05:13.891Z,9.50
2019-03-22T14:07:45.044Z,9.28
2019-03-22T14:10:19.443Z,9.12
2019-03-22T14:12:51.547Z,9.12
2019-03-22T14:15:22.651Z,9.07
2019-03-22T14:17:53.708Z,9.19
2019-03-22T14:20:25.006Z,9.22
2019-03-22T14:22:56.286Z,9.21
2019-03-22T14:25:27.517Z,9.25
2019-03-22T14:27:58.637Z,9.23
2019-03-22T14:30:29.950Z,9.27
2019-03-22T14:33:01.214Z,9.34
2019-03-22T14:35:32.437Z,9.39
2019-03-22T14:38:03.517Z,9.61
2019-03-22T14:40:34.663Z,9.63
2019-03-22T14:43:06.262Z,9.70
2019-03-22T14:45:37.695Z,9.57
2019-03-22T14:48:08.960Z,9.60
2019-03-22T14:50:40.160Z,9.62
2019-03-22T14:53:11.379Z,9.64
2019-03-22T14:55:42.695Z,9.70
2019-03-22T14:58:13.831Z,9.64
2019-03-22T15:00:45.027Z,9.65
2019-03-22T15:03:26.483Z,9.69
2019-03-22T15:05:57.740Z,9.74
2019-03-22T15:08:28.885Z,9.79
2019-03-22T15:11:01.207Z,9.83
2019-03-22T15:13:37.445Z,9.87
2019-03-22T15:16:16.497Z,9.87
2019-03-22T15:18:51.886Z,9.89
2019-03-22T15:21:27.741Z,9.92
2019-03-22T15:24:06.497Z,9.89
2019-03-22T15:26:46.893Z,9.87
2019-03-22T15:29:31.926Z,9.92
2019-03-22T15:32:04.839Z,9.91
2019-03-22T15:34:42.438Z,9.90
2019-03-22T15:37:18.321Z,9.83
2019-03-22T15:40:00.995Z,9.78
2019-03-22T15:42:33.450Z,9.81
2019-03-22T15:45:07.641Z,9.84
2019-03-22T15:47:40.047Z,9.83
2019-03-22T15:50:13.401Z,9.81
2019-03-22T15:52:44.465Z,9.80
2019-03-22T15:55:16.779Z,9.81
2019-03-22T15:57:48.004Z,9.80
2019-03-22T16:00:19.239Z,9.84
2019-03-22T16:02:50.461Z,9.91
2019-03-22T16:05:21.684Z,9.96
2019-03-22T16:07:53.051Z,9.97
2019-03-22T16:10:24.292Z,8.73
2019-03-22T16:12:55.575Z,6.03
2019-03-22T16:15:26.819Z,5.42
2019-03-22T16:17:58.158Z,4.92
2019-03-22T16:20:29.122Z,4.45
2019-03-22T16:23:00.169Z,4.36
2019-03-22T16:25:31.261Z,4.41
2019-03-22T16:28:02.301Z,4.37
2019-03-22T16:30:35.010Z,4.37
2019-03-22T16:33:06.133Z,4.17
2019-03-22T16:35:37.341Z,4.16
2019-03-22T16:38:08.461Z,4.26
2019-03-22T16:40:39.424Z,4.25
2019-03-22T16:43:10.548Z,4.25
2019-03-22T16:45:42.310Z,4.24
2019-03-22T16:48:13.526Z,4.24
2019-03-22T16:50:44.505Z,4.23
2019-03-22T16:53:15.382Z,4.13
2019-03-22T16:55:46.358Z,4.17
2019-03-22T16:58:17.317Z,4.08
2019-03-22T17:00:49.917Z,4.11
2019-03-22T17:03:21.090Z,4.19
2019-03-22T17:05:52.116Z,4.17
2019-03-22T17:08:23.091Z,4.22
2019-03-22T17:10:54.181Z,4.20
2019-03-22T17:13:25.299Z,4.14
2019-03-22T17:15:56.432Z,4.12
2019-03-22T17:18:27.431Z,4.13
2019-03-22T17:20:58.527Z,4.00
2019-03-22T17:23:29.731Z,3.99
2019-03-22T17:26:00.655Z,3.96
2019-03-22T17:28:31.795Z,4.11
2019-03-22T17:31:03.934Z,4.05
2019-03-22T17:33:34.943Z,4.07
2019-03-22T17:36:05.956Z,4.16
2019-03-22T17:38:37.195Z,4.22
2019-03-22T17:41:08.096Z,4.31
2019-03-22T17:43:39.145Z,4.29
2019-03-22T17:46:10.090Z,4.23
2019-03-22T17:48:41.403Z,4.19
2019-03-22T17:51:12.421Z,4.18
2019-03-22T17:53:43.552Z,4.23
2019-03-22T17:56:14.551Z,4.21
2019-03-22T17:58:45.484Z,4.13
2019-03-22T18:01:16.704Z,4.18
2019-03-22T18:03:47.912Z,4.21
2019-03-22T18:06:18.857Z,4.24
2019-03-22T18:08:49.958Z,4.23
2019-03-22T18:11:21.099Z,4.25
2019-03-22T18:13:52.275Z,4.22
2019-03-22T18:16:23.260Z,4.23
2019-03-22T18:18:55.835Z,4.26
2019-03-22T18:21:26.725Z,4.29
2019-03-22T18:23:57.777Z,4.37
2019-03-22T18:26:28.943Z,4.40
2019-03-22T18:29:00.001Z,4.45
2019-03-22T18:31:30.949Z,4.49
2019-03-22T18:34:02.001Z,4.58
2019-03-22T18:36:33.261Z,4.64
2019-03-22T18:39:06.172Z,4.68
2019-03-22T18:41:38.342Z,4.71
2019-03-22T18:44:09.424Z,4.74
2019-03-22T18:46:41.383Z,4.74
2019-03-22T18:49:12.426Z,4.77
2019-03-22T18:51:43.561Z,4.77
2019-03-22T18:54:15.472Z,4.74
2019-03-22T18:56:46.492Z,4.73
2019-03-22T18:59:17.635Z,4.68
2019-03-22T19:01:48.661Z,4.68
2019-03-22T19:04:19.696Z,4.68
2019-03-22T19:06:50.805Z,4.60
2019-03-22T19:09:23.949Z,4.62
2019-03-22T19:11:55.074Z,4.70
2019-03-22T19:14:26.241Z,4.61
2019-03-22T19:16:57.354Z,4.62
2019-03-22T19:19:28.448Z,4.55
2019-03-22T19:21:59.436Z,4.50
2019-03-22T19:26:52.813Z,4.54
2019-03-22T19:29:23.781Z,4.46
2019-03-22T19:31:55.104Z,4.49
2019-03-22T19:34:26.151Z,4.48
2019-03-22T19:36:57.093Z,4.45
2019-03-22T19:39:28.237Z,4.48
2019-03-22T19:41:59.268Z,4.49
2019-03-22T19:44:30.234Z,4.45
2019-03-22T19:47:01.373Z,4.47
2019-03-22T19:49:32.390Z,4.47
2019-03-22T19:52:03.468Z,4.49
2019-03-22T19:54:34.566Z,4.44
2019-03-22T19:57:05.824Z,4.35
2019-03-22T19:59:38.319Z,4.42
2019-03-22T20:02:09.358Z,4.39
2019-03-22T20:04:40.620Z,4.38
2019-03-22T20:07:11.596Z,4.42
2019-03-22T20:09:44.253Z,4.42
2019-03-22T20:12:16.347Z,4.43
2019-03-22T20:14:47.215Z,4.39
2019-03-22T20:17:18.552Z,4.43
2019-03-22T20:19:49.684Z,4.43
2019-03-22T20:22:20.742Z,4.41
2019-03-22T20:24:51.824Z,4.36
2019-03-22T20:27:22.923Z,4.39
2019-03-22T20:29:54.265Z,4.36
2019-03-22T20:32:25.356Z,4.39
2019-03-22T20:34:56.626Z,4.31
2019-03-22T20:37:27.784Z,4.32
2019-03-22T20:39:58.758Z,4.28
2019-03-22T20:42:29.994Z,4.29
2019-03-22T20:45:00.911Z,4.30
2019-03-22T20:47:32.177Z,4.27
2019-03-22T20:50:05.885Z,4.29
2019-03-22T20:52:36.938Z,4.21
2019-03-22T20:55:08.825Z,4.28
2019-03-22T20:57:39.910Z,4.31
2019-03-22T21:00:15.676Z,4.34
2019-03-22T21:02:46.955Z,4.32
2019-03-22T21:05:26.457Z,4.30
2019-03-22T21:07:50.848Z,4.32
2019-03-22T21:10:22.099Z,4.37
2019-03-22T21:12:53.291Z,4.31
2019-03-22T21:15:24.965Z,4.31
2019-03-22T21:17:56.143Z,4.32
2019-03-22T21:20:27.236Z,4.29
2019-03-22T21:22:58.520Z,4.25
2019-03-22T21:25:29.917Z,4.26
2019-03-22T21:28:01.078Z,4.30
2019-03-22T21:30:32.067Z,4.36
2019-03-22T21:33:03.095Z,4.33
2019-03-22T21:35:37.543Z,4.34
2019-03-22T21:38:10.993Z,4.34
2019-03-22T21:40:39.700Z,4.35
2019-03-22T21:43:11.845Z,4.31
2019-03-22T21:45:43.015Z,4.32
2019-03-22T21:48:14.208Z,4.32
2019-03-22T21:50:45.298Z,4.29
2019-03-22T21:53:17.137Z,4.27
2019-03-22T21:55:48.242Z,4.21
2019-03-22T21:58:19.151Z,4.27
2019-03-22T22:00:50.036Z,4.26
2019-03-22T22:03:21.196Z,4.26
2019-03-22T22:05:52.206Z,4.23
2019-03-22T22:08:23.498Z,4.22
2019-03-22T22:11:00.053Z,4.19
2019-03-22T22:13:28.882Z,4.19
2019-03-22T22:16:00.140Z,4.20
2019-03-22T22:18:31.282Z,4.23
2019-03-22T22:21:02.388Z,4.23
2019-03-22T22:23:33.565Z,4.19
2019-03-22T22:26:04.644Z,4.20
2019-03-22T22:28:35.756Z,4.19
2019-03-22T22:31:06.942Z,4.13
2019-03-22T22:33:38.137Z,4.13
2019-03-22T22:36:09.332Z,4.07
2019-03-22T22:38:40.494Z,4.09
2019-03-22T22:41:11.566Z,4.08
2019-03-22T22:43:42.995Z,4.06
2019-03-22T22:46:13.888Z,4.09
2019-03-22T22:48:45.034Z,3.98
2019-03-22T22:51:16.235Z,3.97
2019-03-22T22:53:47.303Z,3.87
2019-03-22T22:56:18.932Z,3.85
2019-03-22T22:58:51.053Z,3.81
2019-03-22T23:01:23.204Z,3.84
2019-03-22T23:03:54.331Z,3.74
2019-03-22T23:06:25.445Z,3.77
2019-03-22T23:08:56.680Z,3.75
2019-03-22T23:11:27.870Z,3.76
2019-03-22T23:13:58.989Z,3.77
2019-03-22T23:16:31.167Z,3.76
2019-03-22T23:19:02.267Z,3.74
2019-03-22T23:21:33.227Z,3.68
2019-03-22T23:24:04.294Z,3.68
2019-03-22T23:26:35.420Z,3.67
2019-03-22T23:29:06.552Z,3.66
2019-03-22T23:31:39.306Z,3.60
2019-03-22T23:34:11.314Z,3.60
2019-03-22T23:36:43.998Z,3.63
2019-03-22T23:39:15.087Z,3.65
2019-03-22T23:41:46.064Z,3.67
2019-03-22T23:44:17.290Z,3.68
2019-03-22T23:46:48.478Z,3.67
2019-03-22T23:49:19.664Z,3.64
2019-03-22T23:51:50.728Z,3.61
2019-03-22T23:54:21.672Z,3.62
2019-03-22T23:56:52.634Z,3.68
2019-03-22T23:59:23.700Z,3.67
